sensor_id;sensor_type;location;lat;lon;timestamp;temperature;humidity
2389;DHT22;1205;47.984;7.668;2023-12-07T00:00:04;3.90;99.90
2389;DHT22;1205;47.984;7.668;2023-12-07T00:02:30;3.90;99.90
2389;DHT22;1205;47.984;7.668;2023-12-07T00:04:55;3.90;99.90
2389;DHT22;1205;47.984;7.668;2023-12-07T00:07:21;3.90;99.90
2389;DHT22;1205;47.984;7.668;2023-12-07T00:09:46;3.80;99.90
2389;DHT22;1205;47.984;7.668;2023-12-07T00:12:12;3.90;99.90
2389;DHT22;1205;47.984;7.668;2023-12-07T00:14:38;3.80;99.90
2389;DHT22;1205;47.984;7.668;2023-12-07T00:17:03;3.80;99.90
2389;DHT22;1205;47.984;7.668;2023-12-07T00:19:29;3.80;99.90
2389;DHT22;1205;47.984;7.668;2023-12-07T00:21:54;3.80;99.90
2389;DHT22;1205;47.984;7.668;2023-12-07T00:24:20;3.60;99.90
2389;DHT22;1205;47.984;7.668;2023-12-07T00:26:46;3.40;99.90
2389;DHT22;1205;47.984;7.668;2023-12-07T00:29:11;3.30;99.90
2389;DHT22;1205;47.984;7.668;2023-12-07T00:31:37;3.20;99.90
2389;DHT22;1205;47.984;7.668;2023-12-07T00:34:03;3.20;99.90
2389;DHT22;1205;47.984;7.668;2023-12-07T00:36:28;3.30;99.90
2389;DHT22;1205;47.984;7.668;2023-12-07T00:38:54;3.30;99.90
2389;DHT22;1205;47.984;7.668;2023-12-07T00:41:19;3.40;99.90
2389;DHT22;1205;47.984;7.668;2023-12-07T00:43:45;3.50;99.90
2389;DHT22;1205;47.984;7.668;2023-12-07T00:46:10;3.50;99.90
2389;DHT22;1205;47.984;7.668;2023-12-07T00:48:36;3.60;99.90
2389;DHT22;1205;47.984;7.668;2023-12-07T00:51:02;3.60;99.90
2389;DHT22;1205;47.984;7.668;2023-12-07T00:53:28;3.70;99.90
2389;DHT22;1205;47.984;7.668;2023-12-07T00:55:53;3.60;99.90
2389;DHT22;1205;47.984;7.668;2023-12-07T00:58:19;3.40;99.90
2389;DHT22;1205;47.984;7.668;2023-12-07T01:00:44;3.40;99.90
2389;DHT22;1205;47.984;7.668;2023-12-07T01:03:10;3.30;99.90
2389;DHT22;1205;47.984;7.668;2023-12-07T01:05:35;3.20;99.90
2389;DHT22;1205;47.984;7.668;2023-12-07T01:08:01;3.20;99.90
2389;DHT22;1205;47.984;7.668;2023-12-07T01:10:26;3.20;99.90
2389;DHT22;1205;47.984;7.668;2023-12-07T01:12:52;3.20;99.90
2389;DHT22;1205;47.984;7.668;2023-12-07T01:15:17;3.10;99.90
2389;DHT22;1205;47.984;7.668;2023-12-07T01:17:43;3.10;99.90
2389;DHT22;1205;47.984;7.668;2023-12-07T01:20:09;3.10;99.90
2389;DHT22;1205;47.984;7.668;2023-12-07T01:22:41;3.10;99.90
2389;DHT22;1205;47.984;7.668;2023-12-07T01:25:07;3.20;99.90
2389;DHT22;1205;47.984;7.668;2023-12-07T01:27:33;3.30;99.90
2389;DHT22;1205;47.984;7.668;2023-12-07T01:29:59;3.40;99.90
2389;DHT22;1205;47.984;7.668;2023-12-07T01:32:24;3.40;99.90
2389;DHT22;1205;47.984;7.668;2023-12-07T01:34:50;3.10;99.90
2389;DHT22;1205;47.984;7.668;2023-12-07T01:37:15;2.90;99.90
2389;DHT22;1205;47.984;7.668;2023-12-07T01:39:42;2.60;99.90
2389;DHT22;1205;47.984;7.668;2023-12-07T01:42:08;2.50;99.90
2389;DHT22;1205;47.984;7.668;2023-12-07T01:44:34;2.40;99.90
2389;DHT22;1205;47.984;7.668;2023-12-07T01:47:00;2.40;99.90
2389;DHT22;1205;47.984;7.668;2023-12-07T01:49:27;2.40;99.90
2389;DHT22;1205;47.984;7.668;2023-12-07T01:51:53;2.40;99.90
2389;DHT22;1205;47.984;7.668;2023-12-07T01:54:19;2.40;99.90
2389;DHT22;1205;47.984;7.668;2023-12-07T01:56:45;2.40;99.90
2389;DHT22;1205;47.984;7.668;2023-12-07T01:59:11;2.40;99.90
2389;DHT22;1205;47.984;7.668;2023-12-07T02:01:37;2.30;99.90
2389;DHT22;1205;47.984;7.668;2023-12-07T02:04:02;2.30;99.90
2389;DHT22;1205;47.984;7.668;2023-12-07T02:06:28;2.30;99.90
2389;DHT22;1205;47.984;7.668;2023-12-07T02:08:54;2.30;99.90
2389;DHT22;1205;47.984;7.668;2023-12-07T02:11:19;2.30;99.90
2389;DHT22;1205;47.984;7.668;2023-12-07T02:13:45;2.30;99.90
2389;DHT22;1205;47.984;7.668;2023-12-07T02:16:17;2.30;99.90
2389;DHT22;1205;47.984;7.668;2023-12-07T02:19:18;2.30;99.90
2389;DHT22;1205;47.984;7.668;2023-12-07T02:21:45;2.30;99.90
2389;DHT22;1205;47.984;7.668;2023-12-07T02:24:18;2.30;99.90
2389;DHT22;1205;47.984;7.668;2023-12-07T02:26:46;2.30;99.90
2389;DHT22;1205;47.984;7.668;2023-12-07T02:29:11;2.30;99.90
2389;DHT22;1205;47.984;7.668;2023-12-07T02:31:37;2.30;99.90
2389;DHT22;1205;47.984;7.668;2023-12-07T02:34:03;2.30;99.90
2389;DHT22;1205;47.984;7.668;2023-12-07T02:36:30;2.40;99.90
2389;DHT22;1205;47.984;7.668;2023-12-07T02:38:58;2.40;99.90
2389;DHT22;1205;47.984;7.668;2023-12-07T02:41:24;2.40;99.90
2389;DHT22;1205;47.984;7.668;2023-12-07T02:43:50;2.40;99.90
2389;DHT22;1205;47.984;7.668;2023-12-07T02:46:18;2.40;99.90
2389;DHT22;1205;47.984;7.668;2023-12-07T02:48:43;2.40;99.90
2389;DHT22;1205;47.984;7.668;2023-12-07T02:51:09;2.40;99.90
2389;DHT22;1205;47.984;7.668;2023-12-07T02:53:34;2.40;99.90
2389;DHT22;1205;47.984;7.668;2023-12-07T02:56:00;2.30;99.90
2389;DHT22;1205;47.984;7.668;2023-12-07T02:58:25;2.30;99.90
2389;DHT22;1205;47.984;7.668;2023-12-07T03:00:51;2.20;99.90
2389;DHT22;1205;47.984;7.668;2023-12-07T03:03:16;2.20;99.90
2389;DHT22;1205;47.984;7.668;2023-12-07T03:05:42;2.10;99.90
2389;DHT22;1205;47.984;7.668;2023-12-07T03:08:07;2.10;99.90
2389;DHT22;1205;47.984;7.668;2023-12-07T03:10:33;2.10;99.90
2389;DHT22;1205;47.984;7.668;2023-12-07T03:12:58;2.10;99.90
2389;DHT22;1205;47.984;7.668;2023-12-07T03:15:24;1.90;99.90
2389;DHT22;1205;47.984;7.668;2023-12-07T03:17:50;2.00;99.90
2389;DHT22;1205;47.984;7.668;2023-12-07T03:20:16;1.90;99.90
2389;DHT22;1205;47.984;7.668;2023-12-07T03:22:42;2.00;99.90
2389;DHT22;1205;47.984;7.668;2023-12-07T03:25:08;2.00;99.90
2389;DHT22;1205;47.984;7.668;2023-12-07T03:27:33;2.00;99.90
2389;DHT22;1205;47.984;7.668;2023-12-07T03:29:59;2.00;99.90
2389;DHT22;1205;47.984;7.668;2023-12-07T03:32:24;1.90;99.90
2389;DHT22;1205;47.984;7.668;2023-12-07T03:34:50;1.90;99.90
2389;DHT22;1205;47.984;7.668;2023-12-07T03:37:15;1.90;99.90
2389;DHT22;1205;47.984;7.668;2023-12-07T03:39:41;1.80;99.90
2389;DHT22;1205;47.984;7.668;2023-12-07T03:42:06;1.90;99.90
2389;DHT22;1205;47.984;7.668;2023-12-07T03:44:32;1.80;99.90
2389;DHT22;1205;47.984;7.668;2023-12-07T03:46:58;1.80;99.90
2389;DHT22;1205;47.984;7.668;2023-12-07T03:49:23;1.70;99.90
2389;DHT22;1205;47.984;7.668;2023-12-07T03:51:49;1.80;99.90
2389;DHT22;1205;47.984;7.668;2023-12-07T03:54:14;1.80;99.90
2389;DHT22;1205;47.984;7.668;2023-12-07T03:56:40;1.70;99.90
2389;DHT22;1205;47.984;7.668;2023-12-07T03:59:06;1.60;99.90
2389;DHT22;1205;47.984;7.668;2023-12-07T04:01:32;1.60;99.90
2389;DHT22;1205;47.984;7.668;2023-12-07T04:03:58;1.60;99.90
2389;DHT22;1205;47.984;7.668;2023-12-07T04:06:24;1.50;99.90
2389;DHT22;1205;47.984;7.668;2023-12-07T04:08:50;1.50;99.90
2389;DHT22;1205;47.984;7.668;2023-12-07T04:11:16;1.50;99.90
2389;DHT22;1205;47.984;7.668;2023-12-07T04:13:42;1.50;99.90
2389;DHT22;1205;47.984;7.668;2023-12-07T04:16:09;1.50;99.90
2389;DHT22;1205;47.984;7.668;2023-12-07T04:18:35;1.40;99.90
2389;DHT22;1205;47.984;7.668;2023-12-07T04:21:01;1.40;99.90
2389;DHT22;1205;47.984;7.668;2023-12-07T04:23:26;1.30;99.90
2389;DHT22;1205;47.984;7.668;2023-12-07T04:25:52;1.40;99.90
2389;DHT22;1205;47.984;7.668;2023-12-07T04:28:17;1.30;99.90
2389;DHT22;1205;47.984;7.668;2023-12-07T04:30:43;1.30;99.90
2389;DHT22;1205;47.984;7.668;2023-12-07T04:33:08;1.30;99.90
2389;DHT22;1205;47.984;7.668;2023-12-07T04:35:34;1.30;99.90
2389;DHT22;1205;47.984;7.668;2023-12-07T04:38:00;1.20;99.90
2389;DHT22;1205;47.984;7.668;2023-12-07T04:40:26;1.20;99.90
2389;DHT22;1205;47.984;7.668;2023-12-07T04:42:51;1.20;99.90
2389;DHT22;1205;47.984;7.668;2023-12-07T04:45:17;1.10;99.90
2389;DHT22;1205;47.984;7.668;2023-12-07T04:47:43;1.10;99.90
2389;DHT22;1205;47.984;7.668;2023-12-07T04:50:08;1.20;99.90
2389;DHT22;1205;47.984;7.668;2023-12-07T04:52:35;1.00;99.90
2389;DHT22;1205;47.984;7.668;2023-12-07T04:55:01;0.90;99.90
2389;DHT22;1205;47.984;7.668;2023-12-07T04:57:26;0.70;99.90
2389;DHT22;1205;47.984;7.668;2023-12-07T04:59:52;0.70;99.90
2389;DHT22;1205;47.984;7.668;2023-12-07T05:02:18;0.50;99.90
2389;DHT22;1205;47.984;7.668;2023-12-07T05:04:44;0.50;99.90
2389;DHT22;1205;47.984;7.668;2023-12-07T05:07:11;0.60;99.90
2389;DHT22;1205;47.984;7.668;2023-12-07T05:09:36;0.50;99.90
2389;DHT22;1205;47.984;7.668;2023-12-07T05:12:03;0.60;99.90
2389;DHT22;1205;47.984;7.668;2023-12-07T05:14:31;0.60;99.90
2389;DHT22;1205;47.984;7.668;2023-12-07T05:16:56;0.60;99.90
2389;DHT22;1205;47.984;7.668;2023-12-07T05:19:23;0.60;99.90
2389;DHT22;1205;47.984;7.668;2023-12-07T05:21:49;0.50;99.90
2389;DHT22;1205;47.984;7.668;2023-12-07T05:24:15;0.50;99.90
2389;DHT22;1205;47.984;7.668;2023-12-07T05:26:41;0.60;99.90
2389;DHT22;1205;47.984;7.668;2023-12-07T05:29:07;0.60;99.90
2389;DHT22;1205;47.984;7.668;2023-12-07T05:31:32;0.60;99.90
2389;DHT22;1205;47.984;7.668;2023-12-07T05:33:58;0.60;99.90
2389;DHT22;1205;47.984;7.668;2023-12-07T05:36:24;0.60;99.90
2389;DHT22;1205;47.984;7.668;2023-12-07T05:38:49;0.60;99.90
2389;DHT22;1205;47.984;7.668;2023-12-07T05:41:15;0.60;99.90
2389;DHT22;1205;47.984;7.668;2023-12-07T05:43:41;0.60;99.90
2389;DHT22;1205;47.984;7.668;2023-12-07T05:46:07;0.60;99.90
2389;DHT22;1205;47.984;7.668;2023-12-07T05:48:33;0.60;99.90
2389;DHT22;1205;47.984;7.668;2023-12-07T05:50:58;0.60;99.90
2389;DHT22;1205;47.984;7.668;2023-12-07T05:53:24;0.60;99.90
2389;DHT22;1205;47.984;7.668;2023-12-07T05:55:50;0.60;99.90
2389;DHT22;1205;47.984;7.668;2023-12-07T05:58:16;0.60;99.90
2389;DHT22;1205;47.984;7.668;2023-12-07T06:00:43;0.50;99.90
2389;DHT22;1205;47.984;7.668;2023-12-07T06:03:09;0.40;99.90
2389;DHT22;1205;47.984;7.668;2023-12-07T06:05:38;0.50;99.90
2389;DHT22;1205;47.984;7.668;2023-12-07T06:08:04;0.40;99.90
2389;DHT22;1205;47.984;7.668;2023-12-07T06:10:30;0.40;99.90
2389;DHT22;1205;47.984;7.668;2023-12-07T06:12:56;0.40;99.90
2389;DHT22;1205;47.984;7.668;2023-12-07T06:15:23;0.30;99.90
2389;DHT22;1205;47.984;7.668;2023-12-07T06:17:49;0.40;99.90
2389;DHT22;1205;47.984;7.668;2023-12-07T06:20:15;0.40;99.90
2389;DHT22;1205;47.984;7.668;2023-12-07T06:22:41;0.40;99.90
2389;DHT22;1205;47.984;7.668;2023-12-07T06:25:06;0.40;99.90
2389;DHT22;1205;47.984;7.668;2023-12-07T06:27:36;0.40;99.90
2389;DHT22;1205;47.984;7.668;2023-12-07T06:30:07;0.50;99.90
2389;DHT22;1205;47.984;7.668;2023-12-07T06:32:33;0.40;99.90
2389;DHT22;1205;47.984;7.668;2023-12-07T06:34:59;0.40;99.90
2389;DHT22;1205;47.984;7.668;2023-12-07T06:37:26;0.40;99.90
2389;DHT22;1205;47.984;7.668;2023-12-07T06:39:54;0.40;99.90
2389;DHT22;1205;47.984;7.668;2023-12-07T06:42:20;0.40;99.90
2389;DHT22;1205;47.984;7.668;2023-12-07T06:44:49;0.40;99.90
2389;DHT22;1205;47.984;7.668;2023-12-07T06:47:15;0.40;99.90
2389;DHT22;1205;47.984;7.668;2023-12-07T06:49:41;0.30;99.90
2389;DHT22;1205;47.984;7.668;2023-12-07T06:52:07;0.30;99.90
2389;DHT22;1205;47.984;7.668;2023-12-07T06:54:33;0.30;99.90
2389;DHT22;1205;47.984;7.668;2023-12-07T06:56:59;0.30;99.90
2389;DHT22;1205;47.984;7.668;2023-12-07T06:59:25;0.30;99.90
2389;DHT22;1205;47.984;7.668;2023-12-07T07:01:55;0.30;99.90
2389;DHT22;1205;47.984;7.668;2023-12-07T07:04:23;0.30;99.90
2389;DHT22;1205;47.984;7.668;2023-12-07T07:06:49;0.30;99.90
2389;DHT22;1205;47.984;7.668;2023-12-07T07:09:15;0.30;99.90
2389;DHT22;1205;47.984;7.668;2023-12-07T07:11:41;0.30;99.90
2389;DHT22;1205;47.984;7.668;2023-12-07T07:14:07;2.20;99.90
2389;DHT22;1205;47.984;7.668;2023-12-07T07:16:32;3.00;99.90
2389;DHT22;1205;47.984;7.668;2023-12-07T07:18:58;3.70;99.90
2389;DHT22;1205;47.984;7.668;2023-12-07T07:21:24;4.40;99.90
2389;DHT22;1205;47.984;7.668;2023-12-07T07:23:49;4.90;99.90
2389;DHT22;1205;47.984;7.668;2023-12-07T07:26:15;5.50;99.90
2389;DHT22;1205;47.984;7.668;2023-12-07T07:28:45;5.80;99.90
2389;DHT22;1205;47.984;7.668;2023-12-07T07:31:10;6.20;99.90
2389;DHT22;1205;47.984;7.668;2023-12-07T07:33:36;5.50;99.90
2389;DHT22;1205;47.984;7.668;2023-12-07T07:36:02;3.90;99.90
2389;DHT22;1205;47.984;7.668;2023-12-07T07:38:28;3.20;99.90
2389;DHT22;1205;47.984;7.668;2023-12-07T07:40:53;2.70;99.90
2389;DHT22;1205;47.984;7.668;2023-12-07T07:43:19;2.40;99.90
2389;DHT22;1205;47.984;7.668;2023-12-07T07:45:44;2.20;99.90
2389;DHT22;1205;47.984;7.668;2023-12-07T07:48:11;2.00;99.90
2389;DHT22;1205;47.984;7.668;2023-12-07T07:50:37;1.90;99.90
2389;DHT22;1205;47.984;7.668;2023-12-07T07:53:03;1.90;99.90
2389;DHT22;1205;47.984;7.668;2023-12-07T07:55:29;1.80;99.90
2389;DHT22;1205;47.984;7.668;2023-12-07T07:57:55;1.80;99.90
2389;DHT22;1205;47.984;7.668;2023-12-07T08:00:21;1.60;99.90
2389;DHT22;1205;47.984;7.668;2023-12-07T08:02:46;1.60;99.90
2389;DHT22;1205;47.984;7.668;2023-12-07T08:05:12;1.50;99.90
2389;DHT22;1205;47.984;7.668;2023-12-07T08:07:39;1.40;99.90
2389;DHT22;1205;47.984;7.668;2023-12-07T08:10:05;1.30;99.90
2389;DHT22;1205;47.984;7.668;2023-12-07T08:12:33;1.20;99.90
2389;DHT22;1205;47.984;7.668;2023-12-07T08:14:58;1.00;99.90
2389;DHT22;1205;47.984;7.668;2023-12-07T08:17:24;1.00;99.90
2389;DHT22;1205;47.984;7.668;2023-12-07T08:19:51;1.10;99.90
2389;DHT22;1205;47.984;7.668;2023-12-07T08:22:17;1.00;99.90
2389;DHT22;1205;47.984;7.668;2023-12-07T08:24:43;1.10;99.90
2389;DHT22;1205;47.984;7.668;2023-12-07T08:27:08;1.30;99.90
2389;DHT22;1205;47.984;7.668;2023-12-07T08:29:35;1.20;99.90
2389;DHT22;1205;47.984;7.668;2023-12-07T08:32:01;1.30;99.90
2389;DHT22;1205;47.984;7.668;2023-12-07T08:34:27;1.40;99.90
2389;DHT22;1205;47.984;7.668;2023-12-07T08:36:53;1.40;99.90
2389;DHT22;1205;47.984;7.668;2023-12-07T08:39:19;1.40;99.90
2389;DHT22;1205;47.984;7.668;2023-12-07T08:41:44;1.40;99.90
2389;DHT22;1205;47.984;7.668;2023-12-07T08:44:10;1.40;99.90
2389;DHT22;1205;47.984;7.668;2023-12-07T08:46:35;1.50;99.90
2389;DHT22;1205;47.984;7.668;2023-12-07T08:49:01;1.60;99.90
2389;DHT22;1205;47.984;7.668;2023-12-07T08:51:30;1.60;99.90
2389;DHT22;1205;47.984;7.668;2023-12-07T08:53:56;1.70;99.90
2389;DHT22;1205;47.984;7.668;2023-12-07T08:56:21;1.80;99.90
2389;DHT22;1205;47.984;7.668;2023-12-07T08:58:47;2.00;99.90
2389;DHT22;1205;47.984;7.668;2023-12-07T09:01:13;3.90;99.90
2389;DHT22;1205;47.984;7.668;2023-12-07T09:03:38;3.00;99.90
2389;DHT22;1205;47.984;7.668;2023-12-07T09:06:04;2.80;99.90
2389;DHT22;1205;47.984;7.668;2023-12-07T09:08:31;2.70;99.90
2389;DHT22;1205;47.984;7.668;2023-12-07T09:10:56;2.50;99.90
2389;DHT22;1205;47.984;7.668;2023-12-07T09:13:22;2.60;99.90
2389;DHT22;1205;47.984;7.668;2023-12-07T09:15:48;2.50;99.90
2389;DHT22;1205;47.984;7.668;2023-12-07T09:18:13;2.50;99.90
2389;DHT22;1205;47.984;7.668;2023-12-07T09:20:39;2.60;99.90
2389;DHT22;1205;47.984;7.668;2023-12-07T09:23:11;2.50;99.90
2389;DHT22;1205;47.984;7.668;2023-12-07T09:25:38;2.60;99.90
2389;DHT22;1205;47.984;7.668;2023-12-07T09:28:04;2.60;99.90
2389;DHT22;1205;47.984;7.668;2023-12-07T09:30:29;2.60;99.90
2389;DHT22;1205;47.984;7.668;2023-12-07T09:32:55;2.60;99.90
2389;DHT22;1205;47.984;7.668;2023-12-07T09:35:20;2.60;99.90
2389;DHT22;1205;47.984;7.668;2023-12-07T09:37:48;2.60;99.90
2389;DHT22;1205;47.984;7.668;2023-12-07T09:40:23;2.70;99.90
2389;DHT22;1205;47.984;7.668;2023-12-07T09:42:50;2.70;99.90
2389;DHT22;1205;47.984;7.668;2023-12-07T09:45:16;2.70;99.90
2389;DHT22;1205;47.984;7.668;2023-12-07T09:47:47;2.70;99.90
2389;DHT22;1205;47.984;7.668;2023-12-07T09:50:16;2.60;99.90
2389;DHT22;1205;47.984;7.668;2023-12-07T09:52:43;2.70;99.90
2389;DHT22;1205;47.984;7.668;2023-12-07T09:55:09;2.60;99.90
2389;DHT22;1205;47.984;7.668;2023-12-07T09:57:36;2.50;99.90
2389;DHT22;1205;47.984;7.668;2023-12-07T10:00:03;2.70;99.90
2389;DHT22;1205;47.984;7.668;2023-12-07T10:02:30;2.80;99.90
2389;DHT22;1205;47.984;7.668;2023-12-07T10:05:25;3.00;99.90
2389;DHT22;1205;47.984;7.668;2023-12-07T10:07:51;3.10;99.90
2389;DHT22;1205;47.984;7.668;2023-12-07T10:10:18;3.20;99.90
2389;DHT22;1205;47.984;7.668;2023-12-07T10:12:56;3.30;99.90
2389;DHT22;1205;47.984;7.668;2023-12-07T10:15:24;3.40;99.90
2389;DHT22;1205;47.984;7.668;2023-12-07T10:17:56;3.60;99.90
2389;DHT22;1205;47.984;7.668;2023-12-07T10:20:23;3.60;99.90
2389;DHT22;1205;47.984;7.668;2023-12-07T10:23:10;3.50;99.90
2389;DHT22;1205;47.984;7.668;2023-12-07T10:25:41;3.50;99.90
2389;DHT22;1205;47.984;7.668;2023-12-07T10:28:10;3.70;99.90
2389;DHT22;1205;47.984;7.668;2023-12-07T10:30:41;3.70;99.90
2389;DHT22;1205;47.984;7.668;2023-12-07T10:33:07;3.70;99.90
2389;DHT22;1205;47.984;7.668;2023-12-07T10:35:33;3.70;99.90
2389;DHT22;1205;47.984;7.668;2023-12-07T10:37:58;3.70;99.90
2389;DHT22;1205;47.984;7.668;2023-12-07T10:40:25;3.70;99.90
2389;DHT22;1205;47.984;7.668;2023-12-07T10:42:56;3.80;99.90
2389;DHT22;1205;47.984;7.668;2023-12-07T10:45:24;3.90;99.90
2389;DHT22;1205;47.984;7.668;2023-12-07T10:47:51;4.00;99.90
2389;DHT22;1205;47.984;7.668;2023-12-07T10:50:21;4.10;99.90
2389;DHT22;1205;47.984;7.668;2023-12-07T10:52:52;4.10;99.90
2389;DHT22;1205;47.984;7.668;2023-12-07T10:55:28;4.10;99.90
2389;DHT22;1205;47.984;7.668;2023-12-07T10:57:55;4.20;99.90
2389;DHT22;1205;47.984;7.668;2023-12-07T11:00:22;4.20;99.90
2389;DHT22;1205;47.984;7.668;2023-12-07T11:02:53;4.10;99.90
2389;DHT22;1205;47.984;7.668;2023-12-07T11:05:19;4.00;99.90
2389;DHT22;1205;47.984;7.668;2023-12-07T11:10:39;4.10;99.90
2389;DHT22;1205;47.984;7.668;2023-12-07T11:13:13;4.10;99.90
2389;DHT22;1205;47.984;7.668;2023-12-07T11:15:43;4.10;99.90
2389;DHT22;1205;47.984;7.668;2023-12-07T11:18:08;4.10;99.90
2389;DHT22;1205;47.984;7.668;2023-12-07T11:20:41;4.20;99.90
2389;DHT22;1205;47.984;7.668;2023-12-07T11:23:08;4.50;99.90
2389;DHT22;1205;47.984;7.668;2023-12-07T11:25:34;5.20;99.90
2389;DHT22;1205;47.984;7.668;2023-12-07T11:28:01;5.00;99.90
2389;DHT22;1205;47.984;7.668;2023-12-07T11:30:28;5.00;99.90
2389;DHT22;1205;47.984;7.668;2023-12-07T11:32:55;5.00;99.90
2389;DHT22;1205;47.984;7.668;2023-12-07T11:35:21;4.80;99.90
2389;DHT22;1205;47.984;7.668;2023-12-07T11:38:08;4.80;99.90
2389;DHT22;1205;47.984;7.668;2023-12-07T11:40:41;4.80;99.90
2389;DHT22;1205;47.984;7.668;2023-12-07T11:43:08;4.70;99.90
2389;DHT22;1205;47.984;7.668;2023-12-07T11:45:47;4.70;99.90
2389;DHT22;1205;47.984;7.668;2023-12-07T11:48:18;4.60;99.90
2389;DHT22;1205;47.984;7.668;2023-12-07T11:51:01;4.60;99.90
2389;DHT22;1205;47.984;7.668;2023-12-07T11:53:32;4.60;99.90
2389;DHT22;1205;47.984;7.668;2023-12-07T11:55:59;4.70;99.90
2389;DHT22;1205;47.984;7.668;2023-12-07T11:58:28;4.70;99.90
2389;DHT22;1205;47.984;7.668;2023-12-07T12:00:54;4.80;99.90
2389;DHT22;1205;47.984;7.668;2023-12-07T12:03:22;4.40;99.90
2389;DHT22;1205;47.984;7.668;2023-12-07T12:05:48;4.40;99.90
2389;DHT22;1205;47.984;7.668;2023-12-07T12:08:13;4.20;99.90
2389;DHT22;1205;47.984;7.668;2023-12-07T12:10:40;3.90;99.90
2389;DHT22;1205;47.984;7.668;2023-12-07T12:13:06;3.90;99.90
2389;DHT22;1205;47.984;7.668;2023-12-07T12:15:32;4.00;99.90
2389;DHT22;1205;47.984;7.668;2023-12-07T12:17:58;4.20;99.90
2389;DHT22;1205;47.984;7.668;2023-12-07T12:20:24;4.20;99.90
2389;DHT22;1205;47.984;7.668;2023-12-07T12:22:51;4.20;99.90
2389;DHT22;1205;47.984;7.668;2023-12-07T12:25:21;4.00;99.90
2389;DHT22;1205;47.984;7.668;2023-12-07T12:27:50;4.10;99.90
2389;DHT22;1205;47.984;7.668;2023-12-07T12:30:16;4.30;99.90
2389;DHT22;1205;47.984;7.668;2023-12-07T12:32:46;4.20;99.90
2389;DHT22;1205;47.984;7.668;2023-12-07T12:35:13;4.30;99.90
2389;DHT22;1205;47.984;7.668;2023-12-07T12:37:43;4.20;99.90
2389;DHT22;1205;47.984;7.668;2023-12-07T12:40:11;4.20;99.90
2389;DHT22;1205;47.984;7.668;2023-12-07T12:42:37;4.20;99.90
2389;DHT22;1205;47.984;7.668;2023-12-07T12:45:07;4.30;99.90
2389;DHT22;1205;47.984;7.668;2023-12-07T12:47:34;4.10;99.90
2389;DHT22;1205;47.984;7.668;2023-12-07T12:50:01;4.00;99.90
2389;DHT22;1205;47.984;7.668;2023-12-07T12:52:29;4.10;99.90
2389;DHT22;1205;47.984;7.668;2023-12-07T12:54:56;4.30;99.90
2389;DHT22;1205;47.984;7.668;2023-12-07T12:57:22;4.30;99.90
2389;DHT22;1205;47.984;7.668;2023-12-07T12:59:48;4.40;99.90
2389;DHT22;1205;47.984;7.668;2023-12-07T13:02:14;4.40;99.90
2389;DHT22;1205;47.984;7.668;2023-12-07T13:04:39;4.30;99.90
2389;DHT22;1205;47.984;7.668;2023-12-07T13:07:09;4.20;99.90
2389;DHT22;1205;47.984;7.668;2023-12-07T13:09:34;4.30;99.90
2389;DHT22;1205;47.984;7.668;2023-12-07T13:12:00;4.50;99.90
2389;DHT22;1205;47.984;7.668;2023-12-07T13:14:26;4.50;99.90
2389;DHT22;1205;47.984;7.668;2023-12-07T13:16:52;4.20;99.90
2389;DHT22;1205;47.984;7.668;2023-12-07T13:19:18;4.30;99.90
2389;DHT22;1205;47.984;7.668;2023-12-07T13:21:45;4.50;99.90
2389;DHT22;1205;47.984;7.668;2023-12-07T13:24:11;4.60;99.90
2389;DHT22;1205;47.984;7.668;2023-12-07T13:26:41;4.60;99.90
2389;DHT22;1205;47.984;7.668;2023-12-07T13:29:06;4.70;99.90
2389;DHT22;1205;47.984;7.668;2023-12-07T13:31:33;4.80;99.90
2389;DHT22;1205;47.984;7.668;2023-12-07T13:34:00;4.80;99.90
2389;DHT22;1205;47.984;7.668;2023-12-07T13:36:25;4.80;99.90
2389;DHT22;1205;47.984;7.668;2023-12-07T13:38:54;4.80;99.90
2389;DHT22;1205;47.984;7.668;2023-12-07T13:41:20;4.90;99.90
2389;DHT22;1205;47.984;7.668;2023-12-07T13:43:46;4.90;99.90
2389;DHT22;1205;47.984;7.668;2023-12-07T13:46:13;4.90;99.90
2389;DHT22;1205;47.984;7.668;2023-12-07T13:48:39;4.90;99.90
2389;DHT22;1205;47.984;7.668;2023-12-07T13:51:05;4.80;99.90
2389;DHT22;1205;47.984;7.668;2023-12-07T13:53:31;4.70;99.90
2389;DHT22;1205;47.984;7.668;2023-12-07T13:55:57;4.60;99.90
2389;DHT22;1205;47.984;7.668;2023-12-07T13:58:22;4.50;99.90
2389;DHT22;1205;47.984;7.668;2023-12-07T14:00:48;4.50;99.90
2389;DHT22;1205;47.984;7.668;2023-12-07T14:03:13;4.50;99.90
2389;DHT22;1205;47.984;7.668;2023-12-07T14:05:39;4.50;99.90
2389;DHT22;1205;47.984;7.668;2023-12-07T14:08:05;4.40;99.90
2389;DHT22;1205;47.984;7.668;2023-12-07T14:10:32;4.40;99.90
2389;DHT22;1205;47.984;7.668;2023-12-07T14:12:57;4.40;99.90
2389;DHT22;1205;47.984;7.668;2023-12-07T14:15:23;4.40;99.90
2389;DHT22;1205;47.984;7.668;2023-12-07T14:17:48;4.40;99.90
2389;DHT22;1205;47.984;7.668;2023-12-07T14:20:14;4.30;99.90
2389;DHT22;1205;47.984;7.668;2023-12-07T14:22:40;4.40;99.90
2389;DHT22;1205;47.984;7.668;2023-12-07T14:25:06;4.30;99.90
2389;DHT22;1205;47.984;7.668;2023-12-07T14:27:31;4.30;99.90
2389;DHT22;1205;47.984;7.668;2023-12-07T14:29:57;4.30;99.90
2389;DHT22;1205;47.984;7.668;2023-12-07T14:32:22;4.80;99.90
2389;DHT22;1205;47.984;7.668;2023-12-07T14:34:48;4.60;99.90
2389;DHT22;1205;47.984;7.668;2023-12-07T14:37:14;4.50;99.90
2389;DHT22;1205;47.984;7.668;2023-12-07T14:39:40;4.50;99.90
2389;DHT22;1205;47.984;7.668;2023-12-07T14:42:06;4.40;99.90
2389;DHT22;1205;47.984;7.668;2023-12-07T14:44:32;4.30;99.90
2389;DHT22;1205;47.984;7.668;2023-12-07T14:46:58;4.30;99.90
2389;DHT22;1205;47.984;7.668;2023-12-07T14:49:25;4.30;99.90
2389;DHT22;1205;47.984;7.668;2023-12-07T14:51:51;4.30;99.90
2389;DHT22;1205;47.984;7.668;2023-12-07T14:54:16;4.20;99.90
2389;DHT22;1205;47.984;7.668;2023-12-07T14:56:43;4.20;99.90
2389;DHT22;1205;47.984;7.668;2023-12-07T14:59:09;4.20;99.90
2389;DHT22;1205;47.984;7.668;2023-12-07T15:01:38;4.10;99.90
2389;DHT22;1205;47.984;7.668;2023-12-07T15:04:05;4.10;99.90
2389;DHT22;1205;47.984;7.668;2023-12-07T15:06:33;4.00;99.90
2389;DHT22;1205;47.984;7.668;2023-12-07T15:08:59;4.00;99.90
2389;DHT22;1205;47.984;7.668;2023-12-07T15:11:25;4.00;99.90
2389;DHT22;1205;47.984;7.668;2023-12-07T15:13:51;4.10;99.90
2389;DHT22;1205;47.984;7.668;2023-12-07T15:16:17;4.00;99.90
2389;DHT22;1205;47.984;7.668;2023-12-07T15:18:42;4.00;99.90
2389;DHT22;1205;47.984;7.668;2023-12-07T15:21:12;3.90;99.90
2389;DHT22;1205;47.984;7.668;2023-12-07T15:23:41;3.90;99.90
2389;DHT22;1205;47.984;7.668;2023-12-07T15:26:09;4.00;99.90
2389;DHT22;1205;47.984;7.668;2023-12-07T15:28:36;3.90;99.90
2389;DHT22;1205;47.984;7.668;2023-12-07T15:31:04;3.80;99.90
2389;DHT22;1205;47.984;7.668;2023-12-07T15:33:30;3.80;99.90
2389;DHT22;1205;47.984;7.668;2023-12-07T15:35:57;3.90;99.90
2389;DHT22;1205;47.984;7.668;2023-12-07T15:38:23;3.80;99.90
2389;DHT22;1205;47.984;7.668;2023-12-07T15:40:48;3.70;99.90
2389;DHT22;1205;47.984;7.668;2023-12-07T15:43:14;3.70;99.90
2389;DHT22;1205;47.984;7.668;2023-12-07T15:45:39;3.60;99.90
2389;DHT22;1205;47.984;7.668;2023-12-07T15:48:05;3.50;99.90
2389;DHT22;1205;47.984;7.668;2023-12-07T15:50:31;3.50;99.90
2389;DHT22;1205;47.984;7.668;2023-12-07T15:52:57;3.40;99.90
2389;DHT22;1205;47.984;7.668;2023-12-07T15:55:23;3.40;99.90
2389;DHT22;1205;47.984;7.668;2023-12-07T15:57:48;3.40;99.90
2389;DHT22;1205;47.984;7.668;2023-12-07T16:00:14;3.30;99.90
2389;DHT22;1205;47.984;7.668;2023-12-07T16:02:40;3.20;99.90
2389;DHT22;1205;47.984;7.668;2023-12-07T16:05:05;3.20;99.90
2389;DHT22;1205;47.984;7.668;2023-12-07T16:07:35;3.10;99.90
2389;DHT22;1205;47.984;7.668;2023-12-07T16:10:06;3.10;99.90
2389;DHT22;1205;47.984;7.668;2023-12-07T16:12:34;2.90;99.90
2389;DHT22;1205;47.984;7.668;2023-12-07T16:14:59;3.00;99.90